Time,TemperatureF,DewpointF,PressureIn,WindDirection,WindDirectionDegrees,WindSpeedMPH,WindSpeedGustMPH,Humidity,HourlyPrecipIn,Conditions,Clouds,dailyrainin,SoftwareType,DateUTC
2013-05-31 00:05:00,78.1,72.0,29.69,South,169,5.0,15.0,80,0.00,,,0.00,weatherlink.com 1.10,2013-05-31 05:05:00,
2013-05-31 00:20:00,78.0,71.0,29.69,South,170,6.0,15.0,80,0.00,,,0.00,weatherlink.com 1.10,2013-05-31 05:20:00,
2013-05-31 00:35:00,77.7,71.0,29.69,South,172,5.0,15.0,81,0.00,,,0.00,weatherlink.com 1.10,2013-05-31 05:35:00,
2013-05-31 00:50:00,77.6,71.0,29.69,South,174,6.0,16.0,81,0.00,,,0.00,weatherlink.com 1.10,2013-05-31 05:50:00,
2013-05-31 01:05:00,77.4,72.0,29.70,South,170,6.0,10.0,82,0.00,,,0.00,weatherlink.com 1.10,2013-05-31 06:05:00,
2013-05-31 01:20:00,77.3,71.0,29.70,SSE,168,5.0,10.0,82,0.00,,,0.00,weatherlink.com 1.10,2013-05-31 06:20:00,
2013-05-31 01:35:00,77.1,72.0,29.70,South,177,3.0,6.0,83,0.00,,,0.00,weatherlink.com 1.10,2013-05-31 06:35:00,
2013-05-31 01:50:00,77.0,72.0,29.70,South,174,1.0,7.0,83,0.00,,,0.00,weatherlink.com 1.10,2013-05-31 06:50:00,
2013-05-31 02:05:00,76.9,71.0,29.70,SSW,209,7.0,11.0,82,0.00,,,0.00,weatherlink.com 1.10,2013-05-31 07:05:00,
2013-05-31 02:20:00,77.0,71.0,29.70,South,178,6.0,9.0,82,0.00,,,0.00,weatherlink.com 1.10,2013-05-31 07:20:00,
2013-05-31 02:35:00,76.9,71.0,29.70,South,188,1.0,3.0,83,0.00,,,0.00,weatherlink.com 1.10,2013-05-31 07:35:00,
2013-05-31 02:50:00,76.9,71.0,29.70,South,184,5.0,11.0,82,0.00,,,0.00,weatherlink.com 1.10,2013-05-31 07:50:00,
2013-05-31 03:05:00,76.7,71.0,29.70,SSE,155,4.0,10.0,82,0.00,,,0.00,weatherlink.com 1.10,2013-05-31 08:05:00,
2013-05-31 03:20:00,76.7,71.0,29.70,South,179,3.0,9.0,82,0.00,,,0.00,weatherlink.com 1.10,2013-05-31 08:20:00,
2013-05-31 03:35:00,76.6,71.0,29.70,South,177,4.0,10.0,83,0.00,,,0.00,weatherlink.com 1.10,2013-05-31 08:35:00,
2013-05-31 03:50:00,76.6,71.0,29.70,South,176,5.0,11.0,83,0.00,,,0.00,weatherlink.com 1.10,2013-05-31 08:50:00,
2013-05-31 04:05:00,76.6,71.0,29.70,South,190,6.0,12.0,83,0.00,,,0.00,weatherlink.com 1.10,2013-05-31 09:05:00,
2013-05-31 04:20:00,76.6,71.0,29.70,South,185,4.0,10.0,82,0.00,,,0.00,weatherlink.com 1.10,2013-05-31 09:20:00,
2013-05-31 04:35:00,76.7,71.0,29.70,SSW,196,6.0,12.0,82,0.00,,,0.00,weatherlink.com 1.10,2013-05-31 09:35:00,
2013-05-31 04:50:00,76.6,70.0,29.70,SSW,207,5.0,10.0,81,0.00,,,0.00,weatherlink.com 1.10,2013-05-31 09:50:00,
2013-05-31 05:05:00,76.6,70.0,29.70,South,186,6.0,10.0,81,0.00,,,0.00,weatherlink.com 1.10,2013-05-31 10:05:00,
2013-05-31 05:20:00,76.5,71.0,29.70,SSW,199,6.0,16.0,82,0.00,,,0.00,weatherlink.com 1.10,2013-05-31 10:20:00,
2013-05-31 05:35:00,76.4,70.0,29.70,South,178,4.0,12.0,81,0.00,,,0.00,weatherlink.com 1.10,2013-05-31 10:35:00,
2013-05-31 05:50:00,76.2,70.0,29.70,South,176,5.0,15.0,81,0.00,,,0.00,weatherlink.com 1.10,2013-05-31 10:50:00,
2013-05-31 06:05:00,76.0,70.0,29.70,SSW,194,9.0,13.0,81,0.00,,,0.00,weatherlink.com 1.10,2013-05-31 11:05:00,
2013-05-31 06:20:00,76.0,70.0,29.71,South,184,8.0,14.0,81,0.00,,,0.00,weatherlink.com 1.10,2013-05-31 11:20:00,
2013-05-31 06:35:00,76.0,69.0,29.71,South,183,5.0,14.0,80,0.00,,,0.00,weatherlink.com 1.10,2013-05-31 11:35:00,
2013-05-31 06:50:00,75.8,70.0,29.71,South,191,4.0,10.0,81,0.00,,,0.00,weatherlink.com 1.10,2013-05-31 11:50:00,
2013-05-31 07:05:00,75.6,69.0,29.72,SSW,198,3.0,11.0,81,0.00,,,0.00,weatherlink.com 1.10,2013-05-31 12:05:00,
2013-05-31 07:20:00,75.6,69.0,29.72,SSW,194,3.0,8.0,81,0.00,,,0.00,weatherlink.com 1.10,2013-05-31 12:20:00,
2013-05-31 07:35:00,75.9,69.0,29.73,SSW,194,2.0,6.0,80,0.00,,,0.00,weatherlink.com 1.10,2013-05-31 12:35:00,
2013-05-31 07:50:00,76.4,69.0,29.73,SSW,192,7.0,7.0,79,0.00,,,0.00,weatherlink.com 1.10,2013-05-31 12:50:00,
2013-05-31 08:05:00,76.8,69.0,29.73,South,184,9.0,12.0,78,0.00,,,0.00,weatherlink.com 1.10,2013-05-31 13:05:00,
2013-05-31 08:20:00,77.3,70.0,29.73,SW,225,5.0,8.0,78,0.00,,,0.00,weatherlink.com 1.10,2013-05-31 13:20:00,
2013-05-31 08:35:00,78.0,70.0,29.74,South,186,6.0,10.0,76,0.00,,,0.00,weatherlink.com 1.10,2013-05-31 13:35:00,
2013-05-31 08:50:00,78.8,69.0,29.74,SSW,198,8.0,13.0,72,0.00,,,0.00,weatherlink.com 1.10,2013-05-31 13:50:00,
2013-05-31 09:05:00,79.1,69.0,29.74,South,189,3.0,15.0,72,0.00,,,0.00,weatherlink.com 1.10,2013-05-31 14:05:00,
2013-05-31 09:20:00,79.7,70.0,29.74,South,186,9.0,14.0,72,0.00,,,0.00,weatherlink.com 1.10,2013-05-31 14:20:00,
2013-05-31 09:35:00,80.6,70.0,29.74,SW,219,3.0,11.0,70,0.00,,,0.00,weatherlink.com 1.10,2013-05-31 14:35:00,
2013-05-31 09:50:00,81.3,71.0,29.75,South,190,8.0,13.0,71,0.00,,,0.00,weatherlink.com 1.10,2013-05-31 14:50:00,
2013-05-31 10:05:00,81.8,71.0,29.75,SSE,161,12.0,17.0,69,0.00,,,0.00,weatherlink.com 1.10,2013-05-31 15:05:00,
2013-05-31 10:20:00,80.4,70.0,29.75,South,169,11.0,15.0,70,0.00,,,0.00,weatherlink.com 1.10,2013-05-31 15:20:00,
2013-05-31 10:35:00,79.5,70.0,29.75,SSW,205,13.0,13.0,73,0.00,,,0.00,weatherlink.com 1.10,2013-05-31 15:35:00,
2013-05-31 10:50:00,80.0,71.0,29.75,South,189,6.0,14.0,73,0.00,,,0.00,weatherlink.com 1.10,2013-05-31 15:50:00,
2013-05-31 11:05:00,80.9,71.0,29.74,South,182,8.0,15.0,71,0.00,,,0.00,weatherlink.com 1.10,2013-05-31 16:05:00,
2013-05-31 11:20:00,81.2,71.0,29.75,SW,225,6.0,15.0,70,0.00,,,0.00,weatherlink.com 1.10,2013-05-31 16:20:00,
2013-05-31 11:35:00,82.2,72.0,29.74,SW,234,6.0,14.0,70,0.00,,,0.00,weatherlink.com 1.10,2013-05-31 16:35:00,
2013-05-31 11:50:00,82.9,72.0,29.74,SSW,203,4.0,13.0,69,0.00,,,0.00,weatherlink.com 1.10,2013-05-31 16:50:00,
2013-05-31 12:05:00,82.7,72.0,29.74,SW,225,6.0,12.0,69,0.00,,,0.00,weatherlink.com 1.10,2013-05-31 17:05:00,
2013-05-31 12:20:00,84.0,71.0,29.74,South,178,3.0,12.0,66,0.00,,,0.00,weatherlink.com 1.10,2013-05-31 17:20:00,
2013-05-31 12:35:00,84.1,72.0,29.73,South,176,9.0,14.0,67,0.00,,,0.00,weatherlink.com 1.10,2013-05-31 17:35:00,
2013-05-31 12:50:00,84.5,72.0,29.73,South,184,4.0,14.0,66,0.00,,,0.00,weatherlink.com 1.10,2013-05-31 17:50:00,
2013-05-31 13:06:00,85.6,72.0,29.72,South,180,3.0,16.0,64,0.00,,,0.00,weatherlink.com 1.10,2013-05-31 18:06:00,
2013-05-31 13:21:00,86.0,72.0,29.72,SSW,202,7.0,16.0,64,0.00,,,0.00,weatherlink.com 1.10,2013-05-31 18:21:00,
2013-05-31 13:36:00,87.7,74.0,29.71,SSW,205,2.0,15.0,63,0.00,,,0.00,weatherlink.com 1.10,2013-05-31 18:36:00,
2013-05-31 13:51:00,87.7,73.0,29.71,SSW,192,8.0,17.0,62,0.00,,,0.00,weatherlink.com 1.10,2013-05-31 18:51:00,
2013-05-31 14:06:00,88.0,73.0,29.70,SSW,198,7.0,17.0,62,0.00,,,0.00,weatherlink.com 1.10,2013-05-31 19:06:00,
2013-05-31 14:21:00,88.6,74.0,29.69,South,190,10.0,14.0,62,0.00,,,0.00,weatherlink.com 1.10,2013-05-31 19:21:00,
2013-05-31 14:36:00,88.7,74.0,29.68,SSW,196,6.0,14.0,61,0.00,,,0.00,weatherlink.com 1.10,2013-05-31 19:36:00,
2013-05-31 14:51:00,89.5,73.0,29.68,SSW,212,10.0,15.0,59,0.00,,,0.00,weatherlink.com 1.10,2013-05-31 19:51:00,
2013-05-31 15:06:00,89.9,74.0,29.67,SSW,202,8.0,15.0,59,0.00,,,0.00,weatherlink.com 1.10,2013-05-31 20:06:00,
2013-05-31 15:21:00,90.0,74.0,29.66,WSW,239,6.0,16.0,59,0.00,,,0.00,weatherlink.com 1.10,2013-05-31 20:21:00,
2013-05-31 15:36:00,90.8,74.0,29.66,SW,230,5.0,18.0,58,0.00,,,0.00,weatherlink.com 1.10,2013-05-31 20:36:00,
2013-05-31 15:51:00,91.5,74.0,29.65,SW,221,5.0,14.0,57,0.00,,,0.00,weatherlink.com 1.10,2013-05-31 20:51:00,
2013-05-31 16:06:00,92.0,74.0,29.64,South,175,3.0,14.0,56,0.00,,,0.00,weatherlink.com 1.10,2013-05-31 21:06:00,
2013-05-31 16:21:00,92.3,74.0,29.64,SSW,207,8.0,12.0,55,0.00,,,0.00,weatherlink.com 1.10,2013-05-31 21:21:00,
2013-05-31 16:36:00,92.8,74.0,29.63,South,186,11.0,14.0,55,0.00,,,0.00,weatherlink.com 1.10,2013-05-31 21:36:00,
2013-05-31 16:51:00,92.7,74.0,29.63,SSW,200,5.0,11.0,54,0.00,,,0.00,weatherlink.com 1.10,2013-05-31 21:51:00,
2013-05-31 17:06:00,92.5,73.0,29.62,SSE,166,6.0,14.0,53,0.00,,,0.00,weatherlink.com 1.10,2013-05-31 22:06:00,
2013-05-31 17:21:00,92.4,73.0,29.62,South,175,8.0,15.0,53,0.00,,,0.00,weatherlink.com 1.10,2013-05-31 22:21:00,
2013-05-31 17:36:00,92.0,73.0,29.61,South,179,11.0,19.0,54,0.00,,,0.00,weatherlink.com 1.10,2013-05-31 22:36:00,
2013-05-31 17:51:00,92.2,73.0,29.61,SW,221,10.0,18.0,54,0.00,,,0.00,weatherlink.com 1.10,2013-05-31 22:51:00,
2013-05-31 18:06:00,92.0,74.0,29.61,SSW,194,10.0,14.0,55,0.00,,,0.00,weatherlink.com 1.10,2013-05-31 23:06:00,
2013-05-31 18:21:00,91.9,73.0,29.61,South,181,12.0,18.0,55,0.00,,,0.00,weatherlink.com 1.10,2013-05-31 23:21:00,
2013-05-31 18:36:00,92.2,73.0,29.61,SSE,165,10.0,16.0,54,0.00,,,0.00,weatherlink.com 1.10,2013-05-31 23:36:00,
2013-05-31 18:51:00,91.7,73.0,29.61,SSW,200,5.0,14.0,55,0.00,,,0.00,weatherlink.com 1.10,2013-05-31 23:51:00,
2013-05-31 19:06:00,91.3,73.0,29.60,South,186,13.0,15.0,56,0.00,,,0.00,weatherlink.com 1.10,2013-06-01 00:06:00,
2013-05-31 19:21:00,90.8,73.0,29.61,SSW,206,7.0,14.0,57,0.00,,,0.00,weatherlink.com 1.10,2013-06-01 00:21:00,
2013-05-31 19:36:00,90.4,74.0,29.61,SE,146,10.0,13.0,58,0.00,,,0.00,weatherlink.com 1.10,2013-06-01 00:36:00,
2013-05-31 19:51:00,89.5,73.0,29.61,South,176,6.0,14.0,59,0.00,,,0.00,weatherlink.com 1.10,2013-06-01 00:51:00,
2013-05-31 20:06:00,88.6,74.0,29.61,South,186,9.0,12.0,62,0.00,,,0.00,weatherlink.com 1.10,2013-06-01 01:06:00,
2013-05-31 20:21:00,87.7,74.0,29.61,SSE,148,7.0,13.0,64,0.00,,,0.00,weatherlink.com 1.10,2013-06-01 01:21:00,
2013-05-31 20:36:00,87.1,73.0,29.62,SSW,194,6.0,12.0,64,0.00,,,0.00,weatherlink.com 1.10,2013-06-01 01:36:00,
2013-05-31 20:51:00,86.4,74.0,29.62,South,177,6.0,12.0,66,0.00,,,0.00,weatherlink.com 1.10,2013-06-01 01:51:00,
2013-05-31 21:06:00,85.8,74.0,29.62,South,189,7.0,13.0,67,0.00,,,0.00,weatherlink.com 1.10,2013-06-01 02:06:00,
2013-05-31 21:21:00,85.2,74.0,29.62,South,178,5.0,9.0,68,0.00,,,0.00,weatherlink.com 1.10,2013-06-01 02:21:00,
2013-05-31 21:36:00,84.8,73.0,29.62,South,188,4.0,11.0,68,0.00,,,0.00,weatherlink.com 1.10,2013-06-01 02:36:00,
2013-05-31 21:51:00,84.3,73.0,29.62,South,178,4.0,9.0,68,0.00,,,0.00,weatherlink.com 1.10,2013-06-01 02:51:00,
2013-05-31 22:06:00,83.9,72.0,29.62,SSE,165,2.0,8.0,68,0.00,,,0.00,weatherlink.com 1.10,2013-06-01 03:06:00,
2013-05-31 22:21:00,83.7,73.0,29.62,South,175,3.0,11.0,69,0.00,,,0.00,weatherlink.com 1.10,2013-06-01 03:21:00,
2013-05-31 22:36:00,83.2,72.0,29.62,SSE,163,7.0,12.0,70,0.00,,,0.00,weatherlink.com 1.10,2013-06-01 03:36:00,
2013-05-31 22:51:00,82.6,73.0,29.63,South,171,3.0,11.0,73,0.00,,,0.00,weatherlink.com 1.10,2013-06-01 03:51:00,
2013-05-31 23:06:00,81.9,74.0,29.63,South,180,4.0,15.0,76,0.00,,,0.00,weatherlink.com 1.10,2013-06-01 04:06:00,
2013-05-31 23:21:00,81.4,74.0,29.64,SSE,160,9.0,15.0,77,0.00,,,0.00,weatherlink.com 1.10,2013-06-01 04:21:00,
2013-05-31 23:36:00,80.9,73.0,29.63,SSE,163,9.0,15.0,78,0.00,,,0.00,weatherlink.com 1.10,2013-06-01 04:36:00,
2013-05-31 23:51:00,80.2,73.0,29.64,SE,146,9.0,11.0,79,0.00,,,0.00,weatherlink.com 1.10,2013-06-01 04:51:00,